sensor_id;sensor_type;location;lat;lon;timestamp;pressure;altitude;pressure_sealevel;temperature;humidity
70559;BME280;58108;48.094;11.838;2023-12-20T00:01:04;95352.75;;;3.94;61.29
70559;BME280;58108;48.094;11.838;2023-12-20T00:03:30;95349.66;;;3.87;61.65
70559;BME280;58108;48.094;11.838;2023-12-20T00:05:55;95338.03;;;3.78;62.20
70559;BME280;58108;48.094;11.838;2023-12-20T00:08:21;95327.75;;;3.77;62.33
70559;BME280;58108;48.094;11.838;2023-12-20T00:10:46;95339.03;;;3.76;62.53
70559;BME280;58108;48.094;11.838;2023-12-20T00:13:12;95324.84;;;3.83;61.83
70559;BME280;58108;48.094;11.838;2023-12-20T00:15:37;95326.16;;;3.74;63.01
70559;BME280;58108;48.094;11.838;2023-12-20T00:18:04;95325.44;;;3.72;63.79
70559;BME280;58108;48.094;11.838;2023-12-20T00:20:29;95319.22;;;3.91;63.00
70559;BME280;58108;48.094;11.838;2023-12-20T00:22:58;95312.72;;;4.00;62.00
70559;BME280;58108;48.094;11.838;2023-12-20T00:25:24;95314.19;;;4.04;62.78
70559;BME280;58108;48.094;11.838;2023-12-20T00:27:50;95300.69;;;3.99;63.30
70559;BME280;58108;48.094;11.838;2023-12-20T00:30:16;95306.03;;;3.95;63.14
70559;BME280;58108;48.094;11.838;2023-12-20T00:32:41;95303.44;;;3.95;63.40
70559;BME280;58108;48.094;11.838;2023-12-20T00:35:21;95303.88;;;3.88;64.23
70559;BME280;58108;48.094;11.838;2023-12-20T00:37:46;95295.91;;;3.91;63.86
70559;BME280;58108;48.094;11.838;2023-12-20T00:40:12;95294.25;;;3.90;64.15
70559;BME280;58108;48.094;11.838;2023-12-20T00:42:37;95304.72;;;3.72;65.41
70559;BME280;58108;48.094;11.838;2023-12-20T00:45:03;95298.84;;;3.85;62.46
70559;BME280;58108;48.094;11.838;2023-12-20T00:47:31;95298.84;;;3.85;62.99
70559;BME280;58108;48.094;11.838;2023-12-20T00:49:57;95294.44;;;3.71;66.19
70559;BME280;58108;48.094;11.838;2023-12-20T00:52:23;95295.84;;;3.60;65.12
70559;BME280;58108;48.094;11.838;2023-12-20T00:54:49;95294.84;;;3.47;64.95
70559;BME280;58108;48.094;11.838;2023-12-20T00:57:14;95288.38;;;3.38;66.59
70559;BME280;58108;48.094;11.838;2023-12-20T00:59:40;95281.72;;;3.34;68.31
70559;BME280;58108;48.094;11.838;2023-12-20T01:02:06;95284.47;;;3.63;64.95
70559;BME280;58108;48.094;11.838;2023-12-20T01:04:32;95277.81;;;3.75;64.05
70559;BME280;58108;48.094;11.838;2023-12-20T01:06:57;95271.88;;;3.57;67.05
70559;BME280;58108;48.094;11.838;2023-12-20T01:09:23;95275.75;;;3.16;71.42
70559;BME280;58108;48.094;11.838;2023-12-20T01:11:52;95274.06;;;3.48;66.05
70559;BME280;58108;48.094;11.838;2023-12-20T01:14:18;95280.78;;;3.51;67.12
70559;BME280;58108;48.094;11.838;2023-12-20T01:16:43;95274.44;;;3.40;67.40
70559;BME280;58108;48.094;11.838;2023-12-20T01:19:09;95266.19;;;3.50;66.80
70559;BME280;58108;48.094;11.838;2023-12-20T01:21:35;95252.81;;;3.41;68.56
70559;BME280;58108;48.094;11.838;2023-12-20T01:24:00;95252.13;;;3.22;73.65
70559;BME280;58108;48.094;11.838;2023-12-20T01:26:26;95248.78;;;3.20;71.43
70559;BME280;58108;48.094;11.838;2023-12-20T01:28:51;95251.69;;;3.13;72.72
70559;BME280;58108;48.094;11.838;2023-12-20T01:31:17;95243.91;;;3.31;70.16
70559;BME280;58108;48.094;11.838;2023-12-20T01:33:42;95240.88;;;3.23;71.48
70559;BME280;58108;48.094;11.838;2023-12-20T01:36:08;95242.63;;;3.22;71.52
70559;BME280;58108;48.094;11.838;2023-12-20T01:38:33;95247.09;;;3.03;74.78
70559;BME280;58108;48.094;11.838;2023-12-20T01:40:59;95225.25;;;3.24;72.17
70559;BME280;58108;48.094;11.838;2023-12-20T01:43:25;95229.00;;;3.19;73.38
70559;BME280;58108;48.094;11.838;2023-12-20T01:45:51;95238.63;;;3.33;72.90
70559;BME280;58108;48.094;11.838;2023-12-20T01:48:17;95236.38;;;3.26;73.06
70559;BME280;58108;48.094;11.838;2023-12-20T01:50:43;95225.94;;;3.28;73.87
70559;BME280;58108;48.094;11.838;2023-12-20T01:53:12;95223.09;;;3.33;73.00
70559;BME280;58108;48.094;11.838;2023-12-20T01:55:40;95224.59;;;3.37;73.59
70559;BME280;58108;48.094;11.838;2023-12-20T01:58:09;95228.03;;;3.37;73.44
70559;BME280;58108;48.094;11.838;2023-12-20T02:00:36;95219.91;;;3.44;72.61
70559;BME280;58108;48.094;11.838;2023-12-20T02:03:03;95213.25;;;3.39;73.04
70559;BME280;58108;48.094;11.838;2023-12-20T02:05:33;95206.81;;;3.47;72.87
70559;BME280;58108;48.094;11.838;2023-12-20T02:07:59;95211.59;;;3.38;74.69
70559;BME280;58108;48.094;11.838;2023-12-20T02:10:25;95207.25;;;3.23;76.16
70559;BME280;58108;48.094;11.838;2023-12-20T02:12:51;95199.38;;;3.24;74.99
70559;BME280;58108;48.094;11.838;2023-12-20T02:15:17;95187.53;;;3.20;75.36
70559;BME280;58108;48.094;11.838;2023-12-20T02:17:43;95182.03;;;3.10;75.87
70559;BME280;58108;48.094;11.838;2023-12-20T02:20:09;95173.34;;;3.11;75.73
70559;BME280;58108;48.094;11.838;2023-12-20T02:22:35;95168.44;;;3.23;76.67
70559;BME280;58108;48.094;11.838;2023-12-20T02:25:00;95167.25;;;3.12;77.58
70559;BME280;58108;48.094;11.838;2023-12-20T02:27:26;95169.56;;;3.17;79.08
70559;BME280;58108;48.094;11.838;2023-12-20T02:29:53;95165.66;;;3.10;77.94
70559;BME280;58108;48.094;11.838;2023-12-20T02:32:19;95165.66;;;3.26;78.99
70559;BME280;58108;48.094;11.838;2023-12-20T02:34:47;95164.75;;;3.11;81.19
70559;BME280;58108;48.094;11.838;2023-12-20T02:37:13;95165.50;;;3.13;79.67
70559;BME280;58108;48.094;11.838;2023-12-20T02:39:39;95165.31;;;3.16;78.04
70559;BME280;58108;48.094;11.838;2023-12-20T02:42:04;95166.91;;;3.19;79.77
70559;BME280;58108;48.094;11.838;2023-12-20T02:44:30;95169.16;;;3.09;80.35
70559;BME280;58108;48.094;11.838;2023-12-20T02:46:55;95164.25;;;3.04;79.36
70559;BME280;58108;48.094;11.838;2023-12-20T02:49:21;95168.25;;;3.10;78.58
70559;BME280;58108;48.094;11.838;2023-12-20T02:51:46;95153.97;;;3.03;78.89
70559;BME280;58108;48.094;11.838;2023-12-20T02:54:12;95149.25;;;3.11;77.69
70559;BME280;58108;48.094;11.838;2023-12-20T02:56:38;95140.97;;;3.20;77.63
70559;BME280;58108;48.094;11.838;2023-12-20T02:59:04;95151.31;;;3.04;80.80
70559;BME280;58108;48.094;11.838;2023-12-20T03:01:31;95143.72;;;3.01;81.05
70559;BME280;58108;48.094;11.838;2023-12-20T03:03:57;95146.56;;;2.96;81.75
70559;BME280;58108;48.094;11.838;2023-12-20T03:06:23;95144.22;;;3.08;80.90
70559;BME280;58108;48.094;11.838;2023-12-20T03:08:48;95144.63;;;3.16;79.48
70559;BME280;58108;48.094;11.838;2023-12-20T03:11:14;95145.88;;;3.25;78.72
70559;BME280;58108;48.094;11.838;2023-12-20T03:13:39;95147.28;;;3.31;77.59
70559;BME280;58108;48.094;11.838;2023-12-20T03:16:12;95142.44;;;3.40;76.17
70559;BME280;58108;48.094;11.838;2023-12-20T03:18:38;95140.44;;;3.46;76.48
70559;BME280;58108;48.094;11.838;2023-12-20T03:21:04;95137.91;;;3.60;74.40
70559;BME280;58108;48.094;11.838;2023-12-20T03:23:30;95144.44;;;3.67;74.22
70559;BME280;58108;48.094;11.838;2023-12-20T03:25:56;95142.72;;;3.66;74.01
70559;BME280;58108;48.094;11.838;2023-12-20T03:28:22;95138.31;;;3.68;73.78
70559;BME280;58108;48.094;11.838;2023-12-20T03:30:48;95138.72;;;3.77;73.35
70559;BME280;58108;48.094;11.838;2023-12-20T03:33:14;95135.94;;;3.80;73.27
70559;BME280;58108;48.094;11.838;2023-12-20T03:35:39;95144.47;;;3.82;73.90
70559;BME280;58108;48.094;11.838;2023-12-20T03:38:05;95135.78;;;3.83;73.88
70559;BME280;58108;48.094;11.838;2023-12-20T03:40:30;95143.81;;;3.93;74.11
70559;BME280;58108;48.094;11.838;2023-12-20T03:42:56;95146.84;;;4.01;73.23
70559;BME280;58108;48.094;11.838;2023-12-20T03:45:21;95155.13;;;3.92;74.09
70559;BME280;58108;48.094;11.838;2023-12-20T03:47:47;95150.16;;;4.03;73.52
70559;BME280;58108;48.094;11.838;2023-12-20T03:50:13;95155.25;;;4.05;74.00
70559;BME280;58108;48.094;11.838;2023-12-20T03:52:38;95156.09;;;4.05;73.84
70559;BME280;58108;48.094;11.838;2023-12-20T03:55:04;95169.13;;;4.04;74.06
70559;BME280;58108;48.094;11.838;2023-12-20T03:57:30;95160.34;;;4.06;74.37
70559;BME280;58108;48.094;11.838;2023-12-20T03:59:55;95174.88;;;4.09;74.01
70559;BME280;58108;48.094;11.838;2023-12-20T04:02:21;95178.31;;;4.09;74.37
70559;BME280;58108;48.094;11.838;2023-12-20T04:04:46;95176.06;;;4.03;75.32
70559;BME280;58108;48.094;11.838;2023-12-20T04:07:12;95186.91;;;4.10;75.06
70559;BME280;58108;48.094;11.838;2023-12-20T04:09:37;95186.25;;;4.06;75.62
70559;BME280;58108;48.094;11.838;2023-12-20T04:12:03;95184.16;;;4.13;75.94
70559;BME280;58108;48.094;11.838;2023-12-20T04:14:28;95196.00;;;4.17;75.75
70559;BME280;58108;48.094;11.838;2023-12-20T04:16:54;95184.34;;;4.24;75.95
70559;BME280;58108;48.094;11.838;2023-12-20T04:19:20;95188.72;;;4.24;76.38
70559;BME280;58108;48.094;11.838;2023-12-20T04:21:45;95189.38;;;4.28;76.11
70559;BME280;58108;48.094;11.838;2023-12-20T04:24:11;95191.13;;;4.27;76.27
70559;BME280;58108;48.094;11.838;2023-12-20T04:26:36;95190.91;;;4.30;76.81
70559;BME280;58108;48.094;11.838;2023-12-20T04:29:02;95197.69;;;4.33;77.14
70559;BME280;58108;48.094;11.838;2023-12-20T04:31:27;95190.91;;;4.30;77.64
70559;BME280;58108;48.094;11.838;2023-12-20T04:33:53;95182.41;;;4.28;78.85
70559;BME280;58108;48.094;11.838;2023-12-20T04:36:19;95188.88;;;4.21;79.35
70559;BME280;58108;48.094;11.838;2023-12-20T04:38:44;95184.72;;;4.33;80.03
70559;BME280;58108;48.094;11.838;2023-12-20T04:41:10;95185.75;;;4.30;82.97
70559;BME280;58108;48.094;11.838;2023-12-20T04:43:35;95185.09;;;4.41;85.02
70559;BME280;58108;48.094;11.838;2023-12-20T04:46:01;95175.78;;;4.38;86.11
70559;BME280;58108;48.094;11.838;2023-12-20T04:48:27;95189.41;;;4.42;89.08
70559;BME280;58108;48.094;11.838;2023-12-20T04:50:53;95190.69;;;4.49;90.70
70559;BME280;58108;48.094;11.838;2023-12-20T04:53:18;95197.38;;;4.68;93.45
70559;BME280;58108;48.094;11.838;2023-12-20T04:55:44;95206.16;;;4.65;94.30
70559;BME280;58108;48.094;11.838;2023-12-20T04:58:09;95204.97;;;4.71;95.84
70559;BME280;58108;48.094;11.838;2023-12-20T05:00:35;95202.19;;;4.74;96.43
70559;BME280;58108;48.094;11.838;2023-12-20T05:03:00;95200.34;;;4.76;96.72
70559;BME280;58108;48.094;11.838;2023-12-20T05:05:26;95213.22;;;4.78;97.41
70559;BME280;58108;48.094;11.838;2023-12-20T05:07:51;95221.81;;;4.78;97.68
70559;BME280;58108;48.094;11.838;2023-12-20T05:10:18;95215.97;;;4.75;98.29
70559;BME280;58108;48.094;11.838;2023-12-20T05:12:43;95218.41;;;4.78;99.11
70559;BME280;58108;48.094;11.838;2023-12-20T05:15:09;95226.28;;;4.76;99.83
70559;BME280;58108;48.094;11.838;2023-12-20T05:17:34;95229.06;;;4.73;100.00
70559;BME280;58108;48.094;11.838;2023-12-20T05:20:00;95236.28;;;4.68;100.00
70559;BME280;58108;48.094;11.838;2023-12-20T05:22:26;95240.16;;;4.61;100.00
70559;BME280;58108;48.094;11.838;2023-12-20T05:24:53;95253.47;;;4.55;100.00
70559;BME280;58108;48.094;11.838;2023-12-20T05:27:18;95257.06;;;4.52;100.00
70559;BME280;58108;48.094;11.838;2023-12-20T05:29:44;95249.28;;;4.52;100.00
70559;BME280;58108;48.094;11.838;2023-12-20T05:32:10;95254.69;;;4.49;100.00
70559;BME280;58108;48.094;11.838;2023-12-20T05:34:35;95257.28;;;4.49;100.00
70559;BME280;58108;48.094;11.838;2023-12-20T05:37:03;95260.13;;;4.44;100.00
70559;BME280;58108;48.094;11.838;2023-12-20T05:39:28;95263.81;;;4.40;100.00
70559;BME280;58108;48.094;11.838;2023-12-20T05:41:54;95277.97;;;4.34;100.00
70559;BME280;58108;48.094;11.838;2023-12-20T05:44:19;95270.72;;;4.25;100.00
70559;BME280;58108;48.094;11.838;2023-12-20T05:46:45;95265.41;;;4.12;100.00
70559;BME280;58108;48.094;11.838;2023-12-20T05:49:10;95283.28;;;4.17;100.00
70559;BME280;58108;48.094;11.838;2023-12-20T05:51:36;95278.25;;;4.14;100.00
70559;BME280;58108;48.094;11.838;2023-12-20T05:54:01;95286.28;;;4.09;100.00
70559;BME280;58108;48.094;11.838;2023-12-20T05:56:27;95301.03;;;4.08;100.00
70559;BME280;58108;48.094;11.838;2023-12-20T05:58:52;95295.59;;;3.97;100.00
70559;BME280;58108;48.094;11.838;2023-12-20T06:01:18;95312.78;;;3.98;100.00
70559;BME280;58108;48.094;11.838;2023-12-20T06:03:43;95309.63;;;3.93;100.00
70559;BME280;58108;48.094;11.838;2023-12-20T06:06:09;95314.47;;;3.99;100.00
70559;BME280;58108;48.094;11.838;2023-12-20T06:08:36;95314.78;;;3.93;100.00
70559;BME280;58108;48.094;11.838;2023-12-20T06:11:01;95311.72;;;3.86;100.00
70559;BME280;58108;48.094;11.838;2023-12-20T06:13:27;95311.97;;;3.81;100.00
70559;BME280;58108;48.094;11.838;2023-12-20T06:15:54;95316.56;;;3.76;100.00
70559;BME280;58108;48.094;11.838;2023-12-20T06:18:20;95323.41;;;3.77;100.00
70559;BME280;58108;48.094;11.838;2023-12-20T06:20:46;95317.31;;;3.78;100.00
70559;BME280;58108;48.094;11.838;2023-12-20T06:23:11;95331.16;;;3.77;100.00
70559;BME280;58108;48.094;11.838;2023-12-20T06:25:37;95320.59;;;3.82;100.00
70559;BME280;58108;48.094;11.838;2023-12-20T06:28:03;95330.69;;;3.71;100.00
70559;BME280;58108;48.094;11.838;2023-12-20T06:30:28;95339.38;;;3.69;100.00
70559;BME280;58108;48.094;11.838;2023-12-20T06:32:54;95337.28;;;3.60;100.00
70559;BME280;58108;48.094;11.838;2023-12-20T06:35:20;95329.50;;;3.60;100.00
70559;BME280;58108;48.094;11.838;2023-12-20T06:37:45;95341.00;;;3.54;100.00
70559;BME280;58108;48.094;11.838;2023-12-20T06:40:11;95346.28;;;3.53;100.00
70559;BME280;58108;48.094;11.838;2023-12-20T06:42:37;95346.44;;;3.50;100.00
70559;BME280;58108;48.094;11.838;2023-12-20T06:45:03;95354.38;;;3.47;100.00
70559;BME280;58108;48.094;11.838;2023-12-20T06:47:29;95346.56;;;3.31;100.00
70559;BME280;58108;48.094;11.838;2023-12-20T06:49:55;95365.22;;;3.37;100.00
70559;BME280;58108;48.094;11.838;2023-12-20T06:52:20;95369.09;;;3.28;100.00
70559;BME280;58108;48.094;11.838;2023-12-20T06:54:46;95374.41;;;3.25;100.00
70559;BME280;58108;48.094;11.838;2023-12-20T06:57:11;95379.06;;;3.19;100.00
70559;BME280;58108;48.094;11.838;2023-12-20T06:59:40;95381.59;;;3.20;100.00
70559;BME280;58108;48.094;11.838;2023-12-20T07:02:06;95380.06;;;3.16;100.00
70559;BME280;58108;48.094;11.838;2023-12-20T07:04:33;95388.81;;;3.13;100.00
70559;BME280;58108;48.094;11.838;2023-12-20T07:06:58;95389.16;;;3.07;100.00
70559;BME280;58108;48.094;11.838;2023-12-20T07:09:26;95392.56;;;3.08;100.00
70559;BME280;58108;48.094;11.838;2023-12-20T07:11:52;95388.78;;;2.97;100.00
70559;BME280;58108;48.094;11.838;2023-12-20T07:14:18;95392.34;;;2.95;100.00
70559;BME280;58108;48.094;11.838;2023-12-20T07:16:43;95396.91;;;2.90;100.00
70559;BME280;58108;48.094;11.838;2023-12-20T07:19:09;95399.47;;;2.90;100.00
70559;BME280;58108;48.094;11.838;2023-12-20T07:21:34;95392.09;;;2.99;100.00
70559;BME280;58108;48.094;11.838;2023-12-20T07:24:00;95407.41;;;2.86;100.00
70559;BME280;58108;48.094;11.838;2023-12-20T07:26:25;95420.47;;;2.83;100.00
70559;BME280;58108;48.094;11.838;2023-12-20T07:28:51;95416.91;;;2.86;100.00
70559;BME280;58108;48.094;11.838;2023-12-20T07:31:17;95420.56;;;2.82;100.00
70559;BME280;58108;48.094;11.838;2023-12-20T07:33:42;95420.69;;;2.79;100.00
70559;BME280;58108;48.094;11.838;2023-12-20T07:36:08;95427.63;;;2.78;100.00
70559;BME280;58108;48.094;11.838;2023-12-20T07:38:34;95435.91;;;2.85;100.00
70559;BME280;58108;48.094;11.838;2023-12-20T07:41:00;95437.00;;;2.81;100.00
70559;BME280;58108;48.094;11.838;2023-12-20T07:43:25;95433.03;;;2.91;100.00
70559;BME280;58108;48.094;11.838;2023-12-20T07:45:51;95428.31;;;2.82;100.00
70559;BME280;58108;48.094;11.838;2023-12-20T07:48:16;95434.03;;;2.89;100.00
70559;BME280;58108;48.094;11.838;2023-12-20T07:50:42;95432.28;;;2.89;100.00
70559;BME280;58108;48.094;11.838;2023-12-20T07:53:08;95442.97;;;2.81;100.00
70559;BME280;58108;48.094;11.838;2023-12-20T07:55:33;95430.13;;;2.80;100.00
70559;BME280;58108;48.094;11.838;2023-12-20T07:58:00;95425.72;;;2.82;100.00
70559;BME280;58108;48.094;11.838;2023-12-20T08:00:26;95436.44;;;2.92;100.00
70559;BME280;58108;48.094;11.838;2023-12-20T08:02:52;95439.34;;;2.85;100.00
70559;BME280;58108;48.094;11.838;2023-12-20T08:05:18;95437.13;;;2.95;100.00
70559;BME280;58108;48.094;11.838;2023-12-20T08:07:43;95435.00;;;2.86;100.00
70559;BME280;58108;48.094;11.838;2023-12-20T08:10:09;95445.75;;;2.96;100.00
70559;BME280;58108;48.094;11.838;2023-12-20T08:12:34;95444.06;;;2.95;100.00
70559;BME280;58108;48.094;11.838;2023-12-20T08:15:01;95443.91;;;2.80;100.00
70559;BME280;58108;48.094;11.838;2023-12-20T08:17:27;95444.13;;;2.93;100.00
70559;BME280;58108;48.094;11.838;2023-12-20T08:19:52;95447.34;;;2.98;100.00
70559;BME280;58108;48.094;11.838;2023-12-20T08:22:18;95448.84;;;2.85;100.00
70559;BME280;58108;48.094;11.838;2023-12-20T08:24:43;95450.16;;;2.94;100.00
70559;BME280;58108;48.094;11.838;2023-12-20T08:27:09;95461.25;;;2.78;100.00
70559;BME280;58108;48.094;11.838;2023-12-20T08:29:35;95459.03;;;2.88;100.00
70559;BME280;58108;48.094;11.838;2023-12-20T08:32:01;95462.41;;;2.90;100.00
70559;BME280;58108;48.094;11.838;2023-12-20T08:34:27;95462.00;;;2.98;100.00
70559;BME280;58108;48.094;11.838;2023-12-20T08:36:52;95467.81;;;3.03;100.00
70559;BME280;58108;48.094;11.838;2023-12-20T08:39:18;95473.44;;;2.94;100.00
70559;BME280;58108;48.094;11.838;2023-12-20T08:41:43;95469.47;;;2.86;100.00
70559;BME280;58108;48.094;11.838;2023-12-20T08:44:09;95473.84;;;2.84;100.00
70559;BME280;58108;48.094;11.838;2023-12-20T08:46:35;95479.38;;;2.96;100.00
70559;BME280;58108;48.094;11.838;2023-12-20T08:49:01;95475.78;;;2.98;100.00
70559;BME280;58108;48.094;11.838;2023-12-20T08:51:26;95478.84;;;2.89;100.00
70559;BME280;58108;48.094;11.838;2023-12-20T08:53:53;95473.50;;;2.92;100.00
70559;BME280;58108;48.094;11.838;2023-12-20T08:56:19;95477.41;;;3.01;100.00
70559;BME280;58108;48.094;11.838;2023-12-20T08:58:45;95462.63;;;3.03;100.00
70559;BME280;58108;48.094;11.838;2023-12-20T09:01:11;95480.06;;;2.99;100.00
70559;BME280;58108;48.094;11.838;2023-12-20T09:03:37;95471.44;;;2.99;100.00
70559;BME280;58108;48.094;11.838;2023-12-20T09:06:03;95469.88;;;2.96;100.00
70559;BME280;58108;48.094;11.838;2023-12-20T09:08:28;95469.63;;;3.01;100.00
70559;BME280;58108;48.094;11.838;2023-12-20T09:10:54;95470.56;;;3.00;100.00
70559;BME280;58108;48.094;11.838;2023-12-20T09:13:19;95467.34;;;2.95;100.00
70559;BME280;58108;48.094;11.838;2023-12-20T09:15:46;95466.50;;;2.94;100.00
70559;BME280;58108;48.094;11.838;2023-12-20T09:18:12;95469.00;;;2.96;100.00
70559;BME280;58108;48.094;11.838;2023-12-20T09:20:37;95455.56;;;3.07;100.00
70559;BME280;58108;48.094;11.838;2023-12-20T09:23:03;95457.16;;;3.09;100.00
70559;BME280;58108;48.094;11.838;2023-12-20T09:25:28;95460.41;;;2.95;100.00
70559;BME280;58108;48.094;11.838;2023-12-20T09:27:55;95463.38;;;3.05;100.00
70559;BME280;58108;48.094;11.838;2023-12-20T09:30:20;95460.22;;;3.00;100.00
70559;BME280;58108;48.094;11.838;2023-12-20T09:32:46;95463.25;;;3.08;100.00
70559;BME280;58108;48.094;11.838;2023-12-20T09:35:11;95460.50;;;3.11;100.00
70559;BME280;58108;48.094;11.838;2023-12-20T09:37:37;95474.13;;;2.97;100.00
70559;BME280;58108;48.094;11.838;2023-12-20T09:40:03;95470.75;;;2.95;100.00
70559;BME280;58108;48.094;11.838;2023-12-20T09:42:38;95465.28;;;3.01;100.00
70559;BME280;58108;48.094;11.838;2023-12-20T09:45:08;95458.75;;;3.12;100.00
70559;BME280;58108;48.094;11.838;2023-12-20T09:47:34;95455.31;;;3.11;100.00
70559;BME280;58108;48.094;11.838;2023-12-20T09:50:01;95459.06;;;3.23;100.00
70559;BME280;58108;48.094;11.838;2023-12-20T09:52:27;95462.28;;;3.11;100.00
70559;BME280;58108;48.094;11.838;2023-12-20T09:54:53;95456.31;;;3.09;100.00
70559;BME280;58108;48.094;11.838;2023-12-20T09:57:20;95453.44;;;3.15;100.00
70559;BME280;58108;48.094;11.838;2023-12-20T09:59:45;95451.13;;;3.09;100.00
70559;BME280;58108;48.094;11.838;2023-12-20T10:02:13;95448.31;;;3.13;100.00
70559;BME280;58108;48.094;11.838;2023-12-20T10:04:46;95452.91;;;3.08;100.00
70559;BME280;58108;48.094;11.838;2023-12-20T10:07:13;95455.09;;;3.16;100.00
70559;BME280;58108;48.094;11.838;2023-12-20T10:09:38;95446.34;;;3.19;100.00
70559;BME280;58108;48.094;11.838;2023-12-20T10:12:05;95446.34;;;3.19;100.00
70559;BME280;58108;48.094;11.838;2023-12-20T10:14:32;95445.84;;;3.12;100.00
70559;BME280;58108;48.094;11.838;2023-12-20T10:17:04;95446.72;;;3.28;100.00
70559;BME280;58108;48.094;11.838;2023-12-20T10:19:30;95439.03;;;3.27;100.00
70559;BME280;58108;48.094;11.838;2023-12-20T10:21:58;95429.22;;;3.34;100.00
70559;BME280;58108;48.094;11.838;2023-12-20T10:24:24;95430.44;;;3.26;100.00
70559;BME280;58108;48.094;11.838;2023-12-20T10:27:01;95429.66;;;3.24;100.00
70559;BME280;58108;48.094;11.838;2023-12-20T10:29:26;95428.16;;;3.20;100.00
70559;BME280;58108;48.094;11.838;2023-12-20T10:31:52;95434.63;;;3.29;100.00
70559;BME280;58108;48.094;11.838;2023-12-20T10:34:22;95434.06;;;3.40;100.00
70559;BME280;58108;48.094;11.838;2023-12-20T10:36:48;95428.56;;;3.30;100.00
70559;BME280;58108;48.094;11.838;2023-12-20T10:39:14;95431.03;;;3.32;100.00
70559;BME280;58108;48.094;11.838;2023-12-20T10:41:41;95429.75;;;3.40;100.00
70559;BME280;58108;48.094;11.838;2023-12-20T10:44:08;95426.16;;;3.43;100.00
70559;BME280;58108;48.094;11.838;2023-12-20T10:46:36;95424.09;;;3.50;100.00
70559;BME280;58108;48.094;11.838;2023-12-20T10:49:04;95423.34;;;3.48;100.00
70559;BME280;58108;48.094;11.838;2023-12-20T10:51:31;95419.53;;;3.55;100.00
70559;BME280;58108;48.094;11.838;2023-12-20T10:53:56;95429.25;;;3.50;100.00
70559;BME280;58108;48.094;11.838;2023-12-20T10:56:22;95411.50;;;3.60;100.00
70559;BME280;58108;48.094;11.838;2023-12-20T10:58:51;95412.78;;;3.68;100.00
70559;BME280;58108;48.094;11.838;2023-12-20T11:01:19;95408.00;;;3.61;100.00
70559;BME280;58108;48.094;11.838;2023-12-20T11:03:50;95407.09;;;3.62;100.00
70559;BME280;58108;48.094;11.838;2023-12-20T11:06:23;95395.97;;;3.60;100.00
70559;BME280;58108;48.094;11.838;2023-12-20T11:14:31;95391.50;;;3.79;100.00
70559;BME280;58108;48.094;11.838;2023-12-20T11:17:14;95394.50;;;3.72;100.00
70559;BME280;58108;48.094;11.838;2023-12-20T11:22:27;95392.19;;;3.83;100.00
70559;BME280;58108;48.094;11.838;2023-12-20T11:24:53;95393.69;;;3.87;100.00
70559;BME280;58108;48.094;11.838;2023-12-20T11:27:19;95398.38;;;3.80;100.00
70559;BME280;58108;48.094;11.838;2023-12-20T11:29:52;95388.16;;;3.77;100.00
70559;BME280;58108;48.094;11.838;2023-12-20T11:34:51;95381.81;;;3.83;100.00
70559;BME280;58108;48.094;11.838;2023-12-20T11:37:19;95390.34;;;3.85;100.00
70559;BME280;58108;48.094;11.838;2023-12-20T11:39:45;95392.69;;;3.90;100.00
70559;BME280;58108;48.094;11.838;2023-12-20T11:42:10;95383.31;;;3.87;100.00
70559;BME280;58108;48.094;11.838;2023-12-20T11:44:37;95391.09;;;3.87;100.00
70559;BME280;58108;48.094;11.838;2023-12-20T11:47:03;95376.81;;;3.96;100.00
70559;BME280;58108;48.094;11.838;2023-12-20T11:49:29;95382.50;;;4.03;100.00
70559;BME280;58108;48.094;11.838;2023-12-20T11:51:57;95371.78;;;4.09;100.00
70559;BME280;58108;48.094;11.838;2023-12-20T11:54:22;95374.72;;;4.03;100.00
70559;BME280;58108;48.094;11.838;2023-12-20T11:56:48;95363.34;;;4.05;100.00
70559;BME280;58108;48.094;11.838;2023-12-20T11:59:14;95378.75;;;4.08;100.00
70559;BME280;58108;48.094;11.838;2023-12-20T12:01:40;95378.22;;;4.02;100.00
70559;BME280;58108;48.094;11.838;2023-12-20T12:04:06;95368.13;;;4.13;100.00
70559;BME280;58108;48.094;11.838;2023-12-20T12:06:32;95375.72;;;4.00;100.00
70559;BME280;58108;48.094;11.838;2023-12-20T12:08:58;95369.19;;;4.09;100.00
70559;BME280;58108;48.094;11.838;2023-12-20T12:11:23;95360.75;;;4.05;100.00
70559;BME280;58108;48.094;11.838;2023-12-20T12:13:50;95366.69;;;4.23;100.00
70559;BME280;58108;48.094;11.838;2023-12-20T12:16:19;95357.84;;;4.12;100.00
70559;BME280;58108;48.094;11.838;2023-12-20T12:18:45;95360.59;;;4.24;100.00
70559;BME280;58108;48.094;11.838;2023-12-20T12:21:19;95355.59;;;4.21;100.00
70559;BME280;58108;48.094;11.838;2023-12-20T12:23:46;95359.25;;;4.17;100.00
70559;BME280;58108;48.094;11.838;2023-12-20T12:26:11;95345.03;;;4.24;100.00
70559;BME280;58108;48.094;11.838;2023-12-20T12:28:40;95352.72;;;4.26;100.00
70559;BME280;58108;48.094;11.838;2023-12-20T12:31:07;95353.59;;;4.10;100.00
70559;BME280;58108;48.094;11.838;2023-12-20T12:33:33;95358.44;;;4.17;100.00
70559;BME280;58108;48.094;11.838;2023-12-20T12:36:02;95351.41;;;4.19;100.00
70559;BME280;58108;48.094;11.838;2023-12-20T12:38:30;95354.25;;;4.14;100.00
70559;BME280;58108;48.094;11.838;2023-12-20T12:40:55;95350.41;;;4.21;100.00
70559;BME280;58108;48.094;11.838;2023-12-20T12:43:21;95360.09;;;4.02;100.00
70559;BME280;58108;48.094;11.838;2023-12-20T12:45:48;95358.91;;;4.07;100.00
70559;BME280;58108;48.094;11.838;2023-12-20T12:48:14;95346.81;;;4.08;100.00
70559;BME280;58108;48.094;11.838;2023-12-20T12:50:40;95346.16;;;4.04;100.00
70559;BME280;58108;48.094;11.838;2023-12-20T12:53:05;95339.81;;;3.94;100.00
70559;BME280;58108;48.094;11.838;2023-12-20T12:55:31;95333.53;;;3.82;100.00
70559;BME280;58108;48.094;11.838;2023-12-20T12:57:56;95333.63;;;3.80;100.00
70559;BME280;58108;48.094;11.838;2023-12-20T13:00:22;95322.41;;;3.96;100.00